sensor_id;sensor_type;location;lat;lon;timestamp;temperature;humidity
20526;DHT22;10421;49.142;9.232;2022-09-24T00:00:44;17.50;89.80
20526;DHT22;10421;49.142;9.232;2022-09-24T00:03:17;17.50;89.80
20526;DHT22;10421;49.142;9.232;2022-09-24T00:05:45;17.50;89.90
20526;DHT22;10421;49.142;9.232;2022-09-24T00:08:12;17.50;90.00
20526;DHT22;10421;49.142;9.232;2022-09-24T00:10:42;17.40;90.00
20526;DHT22;10421;49.142;9.232;2022-09-24T00:13:10;17.40;90.00
20526;DHT22;10421;49.142;9.232;2022-09-24T00:15:38;17.50;90.10
20526;DHT22;10421;49.142;9.232;2022-09-24T00:18:06;17.50;90.10
20526;DHT22;10421;49.142;9.232;2022-09-24T00:20:33;17.40;90.00
20526;DHT22;10421;49.142;9.232;2022-09-24T00:23:00;17.40;90.10
20526;DHT22;10421;49.142;9.232;2022-09-24T00:25:27;17.50;90.10
20526;DHT22;10421;49.142;9.232;2022-09-24T00:28:12;17.40;90.10
20526;DHT22;10421;49.142;9.232;2022-09-24T00:30:39;17.40;90.10
20526;DHT22;10421;49.142;9.232;2022-09-24T00:33:08;17.40;90.20
20526;DHT22;10421;49.142;9.232;2022-09-24T00:35:36;17.40;90.20
20526;DHT22;10421;49.142;9.232;2022-09-24T00:38:03;17.40;90.20
20526;DHT22;10421;49.142;9.232;2022-09-24T00:40:32;17.40;90.20
20526;DHT22;10421;49.142;9.232;2022-09-24T00:43:00;17.40;90.30
20526;DHT22;10421;49.142;9.232;2022-09-24T00:45:28;17.40;90.40
20526;DHT22;10421;49.142;9.232;2022-09-24T00:47:57;17.40;90.40
20526;DHT22;10421;49.142;9.232;2022-09-24T00:50:28;17.40;90.50
20526;DHT22;10421;49.142;9.232;2022-09-24T00:52:58;17.40;90.50
20526;DHT22;10421;49.142;9.232;2022-09-24T00:55:26;17.40;90.50
20526;DHT22;10421;49.142;9.232;2022-09-24T00:57:56;17.30;90.60
20526;DHT22;10421;49.142;9.232;2022-09-24T01:00:23;17.40;90.70
20526;DHT22;10421;49.142;9.232;2022-09-24T01:02:54;17.30;90.80
20526;DHT22;10421;49.142;9.232;2022-09-24T01:05:22;17.40;90.80
20526;DHT22;10421;49.142;9.232;2022-09-24T01:07:50;17.30;90.80
20526;DHT22;10421;49.142;9.232;2022-09-24T01:10:21;17.30;90.90
20526;DHT22;10421;49.142;9.232;2022-09-24T01:13:11;17.30;91.00
20526;DHT22;10421;49.142;9.232;2022-09-24T01:15:42;17.30;91.00
20526;DHT22;10421;49.142;9.232;2022-09-24T01:18:17;17.30;91.10
20526;DHT22;10421;49.142;9.232;2022-09-24T01:20:52;17.30;91.10
20526;DHT22;10421;49.142;9.232;2022-09-24T01:23:41;17.30;91.10
20526;DHT22;10421;49.142;9.232;2022-09-24T01:26:21;17.30;91.10
20526;DHT22;10421;49.142;9.232;2022-09-24T01:29:03;17.30;91.10
20526;DHT22;10421;49.142;9.232;2022-09-24T01:31:36;17.30;91.20
20526;DHT22;10421;49.142;9.232;2022-09-24T01:34:05;17.30;91.20
20526;DHT22;10421;49.142;9.232;2022-09-24T01:36:35;17.20;91.20
20526;DHT22;10421;49.142;9.232;2022-09-24T01:39:06;17.20;91.20
20526;DHT22;10421;49.142;9.232;2022-09-24T01:41:34;17.20;91.30
20526;DHT22;10421;49.142;9.232;2022-09-24T01:44:03;17.20;91.30
20526;DHT22;10421;49.142;9.232;2022-09-24T01:46:32;17.20;91.40
20526;DHT22;10421;49.142;9.232;2022-09-24T01:49:00;17.20;91.40
20526;DHT22;10421;49.142;9.232;2022-09-24T01:51:29;17.20;91.50
20526;DHT22;10421;49.142;9.232;2022-09-24T01:54:02;17.20;91.50
20526;DHT22;10421;49.142;9.232;2022-09-24T01:56:32;17.20;91.50
20526;DHT22;10421;49.142;9.232;2022-09-24T01:59:08;17.20;91.90
20526;DHT22;10421;49.142;9.232;2022-09-24T02:01:41;17.20;91.60
20526;DHT22;10421;49.142;9.232;2022-09-24T02:04:12;17.20;91.60
20526;DHT22;10421;49.142;9.232;2022-09-24T02:06:45;17.20;91.60
20526;DHT22;10421;49.142;9.232;2022-09-24T02:09:31;17.20;91.60
20526;DHT22;10421;49.142;9.232;2022-09-24T02:12:02;17.20;91.70
20526;DHT22;10421;49.142;9.232;2022-09-24T02:14:33;17.10;91.70
20526;DHT22;10421;49.142;9.232;2022-09-24T02:17:03;17.10;91.80
20526;DHT22;10421;49.142;9.232;2022-09-24T02:19:34;17.10;91.90
20526;DHT22;10421;49.142;9.232;2022-09-24T02:22:03;17.00;91.90
20526;DHT22;10421;49.142;9.232;2022-09-24T02:24:36;17.10;91.90
20526;DHT22;10421;49.142;9.232;2022-09-24T02:27:05;17.00;92.00
20526;DHT22;10421;49.142;9.232;2022-09-24T02:29:32;17.00;92.00
20526;DHT22;10421;49.142;9.232;2022-09-24T02:32:02;17.00;92.10
20526;DHT22;10421;49.142;9.232;2022-09-24T02:34:32;17.00;92.10
20526;DHT22;10421;49.142;9.232;2022-09-24T02:37:03;17.00;92.10
20526;DHT22;10421;49.142;9.232;2022-09-24T02:39:31;17.00;92.10
20526;DHT22;10421;49.142;9.232;2022-09-24T02:41:58;17.00;92.20
20526;DHT22;10421;49.142;9.232;2022-09-24T02:44:26;16.90;92.10
20526;DHT22;10421;49.142;9.232;2022-09-24T02:46:53;16.90;92.20
20526;DHT22;10421;49.142;9.232;2022-09-24T02:49:21;16.90;92.30
20526;DHT22;10421;49.142;9.232;2022-09-24T02:51:48;16.90;92.40
20526;DHT22;10421;49.142;9.232;2022-09-24T02:54:15;16.80;92.40
20526;DHT22;10421;49.142;9.232;2022-09-24T02:56:41;16.80;92.50
20526;DHT22;10421;49.142;9.232;2022-09-24T02:59:08;16.80;92.50
20526;DHT22;10421;49.142;9.232;2022-09-24T03:01:36;16.80;92.50
20526;DHT22;10421;49.142;9.232;2022-09-24T03:04:03;16.80;92.60
20526;DHT22;10421;49.142;9.232;2022-09-24T03:06:32;16.80;92.60
20526;DHT22;10421;49.142;9.232;2022-09-24T03:08:59;16.80;92.60
20526;DHT22;10421;49.142;9.232;2022-09-24T03:11:26;16.80;92.60
20526;DHT22;10421;49.142;9.232;2022-09-24T03:13:53;16.80;92.60
20526;DHT22;10421;49.142;9.232;2022-09-24T03:16:20;16.80;92.60
20526;DHT22;10421;49.142;9.232;2022-09-24T03:18:46;16.80;92.60
20526;DHT22;10421;49.142;9.232;2022-09-24T03:21:15;16.80;92.70
20526;DHT22;10421;49.142;9.232;2022-09-24T03:23:44;16.80;92.70
20526;DHT22;10421;49.142;9.232;2022-09-24T03:26:12;16.80;92.70
20526;DHT22;10421;49.142;9.232;2022-09-24T03:28:39;16.80;92.70
20526;DHT22;10421;49.142;9.232;2022-09-24T03:31:06;16.80;92.80
20526;DHT22;10421;49.142;9.232;2022-09-24T03:33:34;16.80;92.80
20526;DHT22;10421;49.142;9.232;2022-09-24T03:36:04;16.80;92.80
20526;DHT22;10421;49.142;9.232;2022-09-24T03:38:31;16.80;92.80
20526;DHT22;10421;49.142;9.232;2022-09-24T03:41:00;16.80;92.80
20526;DHT22;10421;49.142;9.232;2022-09-24T03:43:27;16.80;92.80
20526;DHT22;10421;49.142;9.232;2022-09-24T03:45:54;16.80;92.80
20526;DHT22;10421;49.142;9.232;2022-09-24T03:48:23;16.80;92.80
20526;DHT22;10421;49.142;9.232;2022-09-24T03:50:50;16.70;93.10
20526;DHT22;10421;49.142;9.232;2022-09-24T03:53:17;16.70;92.80
20526;DHT22;10421;49.142;9.232;2022-09-24T03:55:45;16.70;92.80
20526;DHT22;10421;49.142;9.232;2022-09-24T03:58:14;16.70;92.90
20526;DHT22;10421;49.142;9.232;2022-09-24T04:00:41;16.70;92.90
20526;DHT22;10421;49.142;9.232;2022-09-24T04:03:08;16.70;92.90
20526;DHT22;10421;49.142;9.232;2022-09-24T04:05:35;16.70;92.90
20526;DHT22;10421;49.142;9.232;2022-09-24T04:08:03;16.70;92.90
20526;DHT22;10421;49.142;9.232;2022-09-24T04:10:31;16.70;92.90
20526;DHT22;10421;49.142;9.232;2022-09-24T04:12:58;16.60;92.90
20526;DHT22;10421;49.142;9.232;2022-09-24T04:15:26;16.60;93.00
20526;DHT22;10421;49.142;9.232;2022-09-24T04:17:54;16.60;93.10
20526;DHT22;10421;49.142;9.232;2022-09-24T04:20:23;16.60;93.10
20526;DHT22;10421;49.142;9.232;2022-09-24T04:22:51;16.50;93.10
20526;DHT22;10421;49.142;9.232;2022-09-24T04:25:19;16.50;93.10
20526;DHT22;10421;49.142;9.232;2022-09-24T04:27:51;16.50;93.20
20526;DHT22;10421;49.142;9.232;2022-09-24T04:30:18;16.60;93.20
20526;DHT22;10421;49.142;9.232;2022-09-24T04:32:46;16.50;93.10
20526;DHT22;10421;49.142;9.232;2022-09-24T04:35:13;16.60;93.20
20526;DHT22;10421;49.142;9.232;2022-09-24T04:37:40;16.60;93.20
20526;DHT22;10421;49.142;9.232;2022-09-24T04:40:07;16.50;93.10
20526;DHT22;10421;49.142;9.232;2022-09-24T04:42:36;16.50;93.10
20526;DHT22;10421;49.142;9.232;2022-09-24T04:45:04;16.60;93.20
20526;DHT22;10421;49.142;9.232;2022-09-24T04:47:32;16.50;93.20
20526;DHT22;10421;49.142;9.232;2022-09-24T04:50:01;16.50;93.20
20526;DHT22;10421;49.142;9.232;2022-09-24T04:52:28;16.50;93.20
20526;DHT22;10421;49.142;9.232;2022-09-24T04:54:57;16.40;93.20
20526;DHT22;10421;49.142;9.232;2022-09-24T04:57:25;16.40;93.30
20526;DHT22;10421;49.142;9.232;2022-09-24T04:59:52;16.40;93.40
20526;DHT22;10421;49.142;9.232;2022-09-24T05:02:19;16.40;93.30
20526;DHT22;10421;49.142;9.232;2022-09-24T05:04:46;16.50;93.40
20526;DHT22;10421;49.142;9.232;2022-09-24T05:07:14;16.50;93.40
20526;DHT22;10421;49.142;9.232;2022-09-24T05:09:40;16.40;93.40
20526;DHT22;10421;49.142;9.232;2022-09-24T05:12:07;16.40;93.40
20526;DHT22;10421;49.142;9.232;2022-09-24T05:14:34;16.40;93.40
20526;DHT22;10421;49.142;9.232;2022-09-24T05:17:00;16.40;93.50
20526;DHT22;10421;49.142;9.232;2022-09-24T05:19:27;16.40;93.50
20526;DHT22;10421;49.142;9.232;2022-09-24T05:21:53;16.40;93.50
20526;DHT22;10421;49.142;9.232;2022-09-24T05:24:22;16.40;93.50
20526;DHT22;10421;49.142;9.232;2022-09-24T05:26:48;16.40;93.40
20526;DHT22;10421;49.142;9.232;2022-09-24T05:29:33;16.40;93.40
20526;DHT22;10421;49.142;9.232;2022-09-24T05:32:02;16.40;93.40
20526;DHT22;10421;49.142;9.232;2022-09-24T05:34:30;16.30;93.40
20526;DHT22;10421;49.142;9.232;2022-09-24T05:36:57;16.30;93.40
20526;DHT22;10421;49.142;9.232;2022-09-24T05:39:26;16.30;93.40
20526;DHT22;10421;49.142;9.232;2022-09-24T05:41:52;16.30;93.50
20526;DHT22;10421;49.142;9.232;2022-09-24T05:44:19;16.30;93.60
20526;DHT22;10421;49.142;9.232;2022-09-24T05:46:46;16.30;93.60
20526;DHT22;10421;49.142;9.232;2022-09-24T05:49:13;16.30;93.70
20526;DHT22;10421;49.142;9.232;2022-09-24T05:51:40;16.30;93.70
20526;DHT22;10421;49.142;9.232;2022-09-24T05:54:07;16.30;93.70
20526;DHT22;10421;49.142;9.232;2022-09-24T05:56:36;16.30;93.70
20526;DHT22;10421;49.142;9.232;2022-09-24T05:59:03;16.30;93.70
20526;DHT22;10421;49.142;9.232;2022-09-24T06:01:30;16.30;93.70
20526;DHT22;10421;49.142;9.232;2022-09-24T06:03:57;16.30;93.80
20526;DHT22;10421;49.142;9.232;2022-09-24T06:06:23;16.30;93.80
20526;DHT22;10421;49.142;9.232;2022-09-24T06:08:50;16.30;93.80
20526;DHT22;10421;49.142;9.232;2022-09-24T06:11:17;16.30;93.80
20526;DHT22;10421;49.142;9.232;2022-09-24T06:13:48;16.40;93.90
20526;DHT22;10421;49.142;9.232;2022-09-24T06:16:15;16.40;93.90
20526;DHT22;10421;49.142;9.232;2022-09-24T06:18:42;16.40;93.90
20526;DHT22;10421;49.142;9.232;2022-09-24T06:21:11;16.40;94.00
20526;DHT22;10421;49.142;9.232;2022-09-24T06:23:38;16.40;94.00
20526;DHT22;10421;49.142;9.232;2022-09-24T06:26:07;16.40;94.00
20526;DHT22;10421;49.142;9.232;2022-09-24T06:28:36;16.40;94.00
20526;DHT22;10421;49.142;9.232;2022-09-24T06:31:05;16.50;94.10
20526;DHT22;10421;49.142;9.232;2022-09-24T06:33:32;16.50;94.10
20526;DHT22;10421;49.142;9.232;2022-09-24T06:35:59;16.50;94.00
20526;DHT22;10421;49.142;9.232;2022-09-24T06:38:27;16.60;94.10
20526;DHT22;10421;49.142;9.232;2022-09-24T06:40:58;16.60;94.00
20526;DHT22;10421;49.142;9.232;2022-09-24T06:43:24;16.70;94.10
20526;DHT22;10421;49.142;9.232;2022-09-24T06:45:54;16.70;94.10
20526;DHT22;10421;49.142;9.232;2022-09-24T06:48:22;16.70;94.10
20526;DHT22;10421;49.142;9.232;2022-09-24T06:50:49;16.80;94.20
20526;DHT22;10421;49.142;9.232;2022-09-24T06:53:16;16.80;94.20
20526;DHT22;10421;49.142;9.232;2022-09-24T06:55:44;16.90;94.10
20526;DHT22;10421;49.142;9.232;2022-09-24T06:58:12;16.90;94.10
20526;DHT22;10421;49.142;9.232;2022-09-24T07:00:39;17.00;94.10
20526;DHT22;10421;49.142;9.232;2022-09-24T07:03:12;17.10;94.10
20526;DHT22;10421;49.142;9.232;2022-09-24T07:05:42;17.10;94.00
20526;DHT22;10421;49.142;9.232;2022-09-24T07:08:09;17.10;94.00
20526;DHT22;10421;49.142;9.232;2022-09-24T07:10:36;17.10;94.10
20526;DHT22;10421;49.142;9.232;2022-09-24T07:13:06;17.10;94.10
20526;DHT22;10421;49.142;9.232;2022-09-24T07:15:33;17.20;94.20
20526;DHT22;10421;49.142;9.232;2022-09-24T07:17:59;17.20;94.20
20526;DHT22;10421;49.142;9.232;2022-09-24T07:20:26;17.20;94.20
20526;DHT22;10421;49.142;9.232;2022-09-24T07:22:54;17.20;94.20
20526;DHT22;10421;49.142;9.232;2022-09-24T07:25:21;17.20;94.20
20526;DHT22;10421;49.142;9.232;2022-09-24T07:27:48;17.30;94.20
20526;DHT22;10421;49.142;9.232;2022-09-24T07:30:15;17.30;94.20
20526;DHT22;10421;49.142;9.232;2022-09-24T07:32:42;17.30;94.20
20526;DHT22;10421;49.142;9.232;2022-09-24T07:35:08;17.30;94.20
20526;DHT22;10421;49.142;9.232;2022-09-24T07:37:35;17.40;94.20
20526;DHT22;10421;49.142;9.232;2022-09-24T07:40:04;17.40;94.10
20526;DHT22;10421;49.142;9.232;2022-09-24T07:42:30;17.40;94.00
20526;DHT22;10421;49.142;9.232;2022-09-24T07:44:57;17.40;94.00
20526;DHT22;10421;49.142;9.232;2022-09-24T07:47:25;17.50;94.00
20526;DHT22;10421;49.142;9.232;2022-09-24T07:49:51;17.50;94.00
20526;DHT22;10421;49.142;9.232;2022-09-24T07:52:21;17.50;94.00
20526;DHT22;10421;49.142;9.232;2022-09-24T07:54:48;17.50;94.00
20526;DHT22;10421;49.142;9.232;2022-09-24T07:57:17;17.50;93.90
20526;DHT22;10421;49.142;9.232;2022-09-24T07:59:44;17.50;93.90
20526;DHT22;10421;49.142;9.232;2022-09-24T08:02:14;17.60;93.90
20526;DHT22;10421;49.142;9.232;2022-09-24T08:04:42;17.60;93.90
20526;DHT22;10421;49.142;9.232;2022-09-24T08:07:09;17.70;94.00
20526;DHT22;10421;49.142;9.232;2022-09-24T08:09:36;17.60;94.00
20526;DHT22;10421;49.142;9.232;2022-09-24T08:12:04;17.70;94.00
20526;DHT22;10421;49.142;9.232;2022-09-24T08:14:32;17.70;94.00
20526;DHT22;10421;49.142;9.232;2022-09-24T08:17:00;17.80;94.00
20526;DHT22;10421;49.142;9.232;2022-09-24T08:19:27;17.90;94.00
20526;DHT22;10421;49.142;9.232;2022-09-24T08:21:55;17.90;94.00
20526;DHT22;10421;49.142;9.232;2022-09-24T08:24:23;18.00;94.00
20526;DHT22;10421;49.142;9.232;2022-09-24T08:26:50;18.00;93.90
20526;DHT22;10421;49.142;9.232;2022-09-24T08:29:16;18.10;93.90
20526;DHT22;10421;49.142;9.232;2022-09-24T08:31:45;18.10;93.80
20526;DHT22;10421;49.142;9.232;2022-09-24T08:34:11;18.20;93.80
20526;DHT22;10421;49.142;9.232;2022-09-24T08:36:39;18.20;93.50
20526;DHT22;10421;49.142;9.232;2022-09-24T08:39:05;18.20;93.50
20526;DHT22;10421;49.142;9.232;2022-09-24T08:41:52;18.30;93.40
20526;DHT22;10421;49.142;9.232;2022-09-24T08:44:25;18.30;93.40
20526;DHT22;10421;49.142;9.232;2022-09-24T08:47:18;18.40;93.70
20526;DHT22;10421;49.142;9.232;2022-09-24T08:49:55;18.40;93.30
20526;DHT22;10421;49.142;9.232;2022-09-24T08:52:31;18.40;93.00
20526;DHT22;10421;49.142;9.232;2022-09-24T08:55:03;18.50;93.00
20526;DHT22;10421;49.142;9.232;2022-09-24T08:57:36;18.50;92.90
20526;DHT22;10421;49.142;9.232;2022-09-24T09:00:04;18.60;92.90
20526;DHT22;10421;49.142;9.232;2022-09-24T09:02:40;18.60;92.90
20526;DHT22;10421;49.142;9.232;2022-09-24T09:05:17;18.70;92.90
20526;DHT22;10421;49.142;9.232;2022-09-24T09:07:55;18.80;92.80
20526;DHT22;10421;49.142;9.232;2022-09-24T09:10:26;18.90;92.70
20526;DHT22;10421;49.142;9.232;2022-09-24T09:13:00;19.00;92.60
20526;DHT22;10421;49.142;9.232;2022-09-24T09:15:30;19.00;92.50
20526;DHT22;10421;49.142;9.232;2022-09-24T09:18:03;19.00;92.40
20526;DHT22;10421;49.142;9.232;2022-09-24T09:20:33;19.10;92.30
20526;DHT22;10421;49.142;9.232;2022-09-24T09:23:05;19.10;92.20
20526;DHT22;10421;49.142;9.232;2022-09-24T09:25:36;19.10;92.00
20526;DHT22;10421;49.142;9.232;2022-09-24T09:28:09;19.20;92.00
20526;DHT22;10421;49.142;9.232;2022-09-24T09:30:44;19.20;91.90
20526;DHT22;10421;49.142;9.232;2022-09-24T09:33:23;19.20;91.80
20526;DHT22;10421;49.142;9.232;2022-09-24T09:35:59;19.20;91.70
20526;DHT22;10421;49.142;9.232;2022-09-24T09:38:31;19.20;91.70
20526;DHT22;10421;49.142;9.232;2022-09-24T09:41:08;19.20;91.60
20526;DHT22;10421;49.142;9.232;2022-09-24T09:43:37;19.30;91.60
20526;DHT22;10421;49.142;9.232;2022-09-24T09:46:10;19.40;91.60
20526;DHT22;10421;49.142;9.232;2022-09-24T09:48:43;19.40;91.50
20526;DHT22;10421;49.142;9.232;2022-09-24T09:51:15;19.50;91.50
20526;DHT22;10421;49.142;9.232;2022-09-24T09:53:53;19.50;91.40
20526;DHT22;10421;49.142;9.232;2022-09-24T09:56:22;19.60;91.40
20526;DHT22;10421;49.142;9.232;2022-09-24T09:58:50;19.60;91.20
20526;DHT22;10421;49.142;9.232;2022-09-24T10:01:30;19.60;91.10
20526;DHT22;10421;49.142;9.232;2022-09-24T10:04:00;19.60;91.00
20526;DHT22;10421;49.142;9.232;2022-09-24T10:06:30;19.70;91.00
20526;DHT22;10421;49.142;9.232;2022-09-24T10:09:11;19.70;91.00
20526;DHT22;10421;49.142;9.232;2022-09-24T10:11:39;19.70;91.00
20526;DHT22;10421;49.142;9.232;2022-09-24T10:14:12;19.70;90.90
20526;DHT22;10421;49.142;9.232;2022-09-24T10:16:41;19.70;90.90
20526;DHT22;10421;49.142;9.232;2022-09-24T10:19:20;19.60;90.90
20526;DHT22;10421;49.142;9.232;2022-09-24T10:21:48;19.70;90.90
20526;DHT22;10421;49.142;9.232;2022-09-24T10:24:20;19.60;90.80
20526;DHT22;10421;49.142;9.232;2022-09-24T10:26:48;19.60;90.90
20526;DHT22;10421;49.142;9.232;2022-09-24T10:29:18;19.70;91.10
20526;DHT22;10421;49.142;9.232;2022-09-24T10:32:04;19.80;91.10
20526;DHT22;10421;49.142;9.232;2022-09-24T10:34:33;19.90;91.10
20526;DHT22;10421;49.142;9.232;2022-09-24T10:37:02;19.90;90.80
20526;DHT22;10421;49.142;9.232;2022-09-24T10:39:30;20.00;90.80
20526;DHT22;10421;49.142;9.232;2022-09-24T10:41:57;20.00;90.60
20526;DHT22;10421;49.142;9.232;2022-09-24T10:44:28;20.00;90.60
20526;DHT22;10421;49.142;9.232;2022-09-24T10:50:06;20.20;90.90
20526;DHT22;10421;49.142;9.232;2022-09-24T10:52:43;20.10;90.90
20526;DHT22;10421;49.142;9.232;2022-09-24T10:55:20;20.20;90.80
20526;DHT22;10421;49.142;9.232;2022-09-24T10:57:56;20.10;90.60
20526;DHT22;10421;49.142;9.232;2022-09-24T11:00:29;20.10;90.80
20526;DHT22;10421;49.142;9.232;2022-09-24T11:06:13;20.20;91.00
20526;DHT22;10421;49.142;9.232;2022-09-24T11:08:56;20.20;90.90
20526;DHT22;10421;49.142;9.232;2022-09-24T11:11:37;20.20;90.90
20526;DHT22;10421;49.142;9.232;2022-09-24T11:14:17;20.20;91.00
20526;DHT22;10421;49.142;9.232;2022-09-24T11:19:49;20.20;90.90
20526;DHT22;10421;49.142;9.232;2022-09-24T11:22:25;20.30;91.00
20526;DHT22;10421;49.142;9.232;2022-09-24T11:25:07;20.30;91.10
20526;DHT22;10421;49.142;9.232;2022-09-24T11:27:47;20.30;91.00
20526;DHT22;10421;49.142;9.232;2022-09-24T11:30:18;20.40;91.00
20526;DHT22;10421;49.142;9.232;2022-09-24T11:32:57;20.50;90.90
20526;DHT22;10421;49.142;9.232;2022-09-24T11:35:38;20.50;90.90
20526;DHT22;10421;49.142;9.232;2022-09-24T11:38:14;20.60;90.80
20526;DHT22;10421;49.142;9.232;2022-09-24T11:40:55;20.60;90.70
20526;DHT22;10421;49.142;9.232;2022-09-24T11:43:45;20.70;90.60
20526;DHT22;10421;49.142;9.232;2022-09-24T11:46:25;20.70;90.60
20526;DHT22;10421;49.142;9.232;2022-09-24T11:49:08;20.70;90.60
20526;DHT22;10421;49.142;9.232;2022-09-24T11:51:47;20.70;90.60
20526;DHT22;10421;49.142;9.232;2022-09-24T11:54:22;20.70;90.60
20526;DHT22;10421;49.142;9.232;2022-09-24T11:56:56;20.60;90.60
20526;DHT22;10421;49.142;9.232;2022-09-24T11:59:32;20.60;90.50
20526;DHT22;10421;49.142;9.232;2022-09-24T12:02:04;20.50;90.50
20526;DHT22;10421;49.142;9.232;2022-09-24T12:04:45;20.50;90.60
20526;DHT22;10421;49.142;9.232;2022-09-24T12:07:17;20.50;90.70
20526;DHT22;10421;49.142;9.232;2022-09-24T12:09:52;20.50;90.70
20526;DHT22;10421;49.142;9.232;2022-09-24T12:12:24;20.60;90.80
20526;DHT22;10421;49.142;9.232;2022-09-24T12:14:56;20.60;90.80
20526;DHT22;10421;49.142;9.232;2022-09-24T12:17:29;20.50;90.60
20526;DHT22;10421;49.142;9.232;2022-09-24T12:20:00;20.50;91.00
20526;DHT22;10421;49.142;9.232;2022-09-24T12:22:28;20.60;91.00
20526;DHT22;10421;49.142;9.232;2022-09-24T12:24:59;20.60;91.00
20526;DHT22;10421;49.142;9.232;2022-09-24T12:27:32;20.50;91.20
20526;DHT22;10421;49.142;9.232;2022-09-24T12:30:04;20.50;91.10
20526;DHT22;10421;49.142;9.232;2022-09-24T12:33:04;20.50;91.10
20526;DHT22;10421;49.142;9.232;2022-09-24T12:35:42;20.50;91.10
20526;DHT22;10421;49.142;9.232;2022-09-24T12:38:15;20.40;91.30
20526;DHT22;10421;49.142;9.232;2022-09-24T12:43:43;20.40;91.50
20526;DHT22;10421;49.142;9.232;2022-09-24T12:46:17;20.30;91.50
20526;DHT22;10421;49.142;9.232;2022-09-24T12:48:45;20.30;91.50
20526;DHT22;10421;49.142;9.232;2022-09-24T12:51:14;20.30;91.50
20526;DHT22;10421;49.142;9.232;2022-09-24T12:53:54;20.30;91.60
20526;DHT22;10421;49.142;9.232;2022-09-24T12:56:25;20.20;91.70
20526;DHT22;10421;49.142;9.232;2022-09-24T12:58:54;20.20;92.10
20526;DHT22;10421;49.142;9.232;2022-09-24T13:01:28;20.10;92.10
20526;DHT22;10421;49.142;9.232;2022-09-24T13:04:03;20.10;92.20
20526;DHT22;10421;49.142;9.232;2022-09-24T13:06:32;20.10;92.50
20526;DHT22;10421;49.142;9.232;2022-09-24T13:09:00;20.10;92.90
20526;DHT22;10421;49.142;9.232;2022-09-24T13:11:31;20.00;93.00
20526;DHT22;10421;49.142;9.232;2022-09-24T13:14:00;19.90;93.00
20526;DHT22;10421;49.142;9.232;2022-09-24T13:16:29;19.90;93.40
20526;DHT22;10421;49.142;9.232;2022-09-24T13:18:58;19.80;93.70
20526;DHT22;10421;49.142;9.232;2022-09-24T13:21:26;19.80;93.80
20526;DHT22;10421;49.142;9.232;2022-09-24T13:23:55;19.80;94.10
20526;DHT22;10421;49.142;9.232;2022-09-24T13:26:29;19.70;94.60
20526;DHT22;10421;49.142;9.232;2022-09-24T13:28:59;19.70;94.70
20526;DHT22;10421;49.142;9.232;2022-09-24T13:31:34;19.70;94.80
20526;DHT22;10421;49.142;9.232;2022-09-24T13:34:12;19.70;95.10
20526;DHT22;10421;49.142;9.232;2022-09-24T13:36:43;19.70;95.20
20526;DHT22;10421;49.142;9.232;2022-09-24T13:39:14;19.70;95.30
20526;DHT22;10421;49.142;9.232;2022-09-24T13:41:48;19.80;95.50
20526;DHT22;10421;49.142;9.232;2022-09-24T13:44:19;19.80;95.50
20526;DHT22;10421;49.142;9.232;2022-09-24T13:46:52;19.90;95.60
20526;DHT22;10421;49.142;9.232;2022-09-24T13:49:22;19.90;95.70
20526;DHT22;10421;49.142;9.232;2022-09-24T13:51:58;20.00;95.80
20526;DHT22;10421;49.142;9.232;2022-09-24T13:54:31;20.00;95.80
20526;DHT22;10421;49.142;9.232;2022-09-24T13:57:08;20.00;95.80
20526;DHT22;10421;49.142;9.232;2022-09-24T13:59:36;20.00;96.00
20526;DHT22;10421;49.142;9.232;2022-09-24T14:02:16;20.00;96.10
20526;DHT22;10421;49.142;9.232;2022-09-24T14:04:48;20.00;96.30
20526;DHT22;10421;49.142;9.232;2022-09-24T14:07:19;20.00;96.10
20526;DHT22;10421;49.142;9.232;2022-09-24T14:09:46;20.00;96.10
20526;DHT22;10421;49.142;9.232;2022-09-24T14:12:16;20.00;96.10
20526;DHT22;10421;49.142;9.232;2022-09-24T14:14:52;20.00;96.10
20526;DHT22;10421;49.142;9.232;2022-09-24T14:17:23;20.10;96.20
20526;DHT22;10421;49.142;9.232;2022-09-24T14:19:54;20.10;96.20
20526;DHT22;10421;49.142;9.232;2022-09-24T14:22:24;20.20;96.40
20526;DHT22;10421;49.142;9.232;2022-09-24T14:24:56;20.20;96.40
20526;DHT22;10421;49.142;9.232;2022-09-24T14:27:27;20.30;96.60
20526;DHT22;10421;49.142;9.232;2022-09-24T14:29:58;20.30;96.50
20526;DHT22;10421;49.142;9.232;2022-09-24T14:32:28;20.30;96.60
20526;DHT22;10421;49.142;9.232;2022-09-24T14:34:57;20.30;96.50
20526;DHT22;10421;49.142;9.232;2022-09-24T14:37:27;20.30;96.50
20526;DHT22;10421;49.142;9.232;2022-09-24T14:39:59;20.20;96.90
20526;DHT22;10421;49.142;9.232;2022-09-24T14:42:31;20.30;96.70
20526;DHT22;10421;49.142;9.232;2022-09-24T14:44:59;20.30;96.70
20526;DHT22;10421;49.142;9.232;2022-09-24T14:47:30;20.20;97.00
20526;DHT22;10421;49.142;9.232;2022-09-24T14:49:57;20.20;97.00
20526;DHT22;10421;49.142;9.232;2022-09-24T14:52:29;20.20;97.00
20526;DHT22;10421;49.142;9.232;2022-09-24T14:55:11;20.20;97.00
20526;DHT22;10421;49.142;9.232;2022-09-24T14:57:41;20.20;97.10
20526;DHT22;10421;49.142;9.232;2022-09-24T15:00:20;20.20;97.00
20526;DHT22;10421;49.142;9.232;2022-09-24T15:02:49;20.20;97.10
20526;DHT22;10421;49.142;9.232;2022-09-24T15:05:22;20.20;97.20
20526;DHT22;10421;49.142;9.232;2022-09-24T15:07:49;20.20;97.20
20526;DHT22;10421;49.142;9.232;2022-09-24T15:10:20;20.20;97.30
20526;DHT22;10421;49.142;9.232;2022-09-24T15:12:50;20.20;97.40
20526;DHT22;10421;49.142;9.232;2022-09-24T15:15:27;20.20;97.40
20526;DHT22;10421;49.142;9.232;2022-09-24T15:17:54;20.20;97.50
20526;DHT22;10421;49.142;9.232;2022-09-24T15:20:20;20.20;97.50
20526;DHT22;10421;49.142;9.232;2022-09-24T15:22:47;20.20;97.50
20526;DHT22;10421;49.142;9.232;2022-09-24T15:25:14;20.20;97.50
20526;DHT22;10421;49.142;9.232;2022-09-24T15:27:41;20.20;97.60
20526;DHT22;10421;49.142;9.232;2022-09-24T15:30:16;20.30;97.70
20526;DHT22;10421;49.142;9.232;2022-09-24T15:32:44;20.30;97.60
20526;DHT22;10421;49.142;9.232;2022-09-24T15:35:13;20.40;97.70
20526;DHT22;10421;49.142;9.232;2022-09-24T15:37:41;20.50;97.70
20526;DHT22;10421;49.142;9.232;2022-09-24T15:40:15;20.60;97.60
20526;DHT22;10421;49.142;9.232;2022-09-24T15:42:43;20.70;97.50
20526;DHT22;10421;49.142;9.232;2022-09-24T15:45:16;20.70;97.40
20526;DHT22;10421;49.142;9.232;2022-09-24T15:47:43;20.70;97.40
20526;DHT22;10421;49.142;9.232;2022-09-24T15:50:10;20.70;97.30
20526;DHT22;10421;49.142;9.232;2022-09-24T15:52:42;20.70;97.20
20526;DHT22;10421;49.142;9.232;2022-09-24T15:55:12;20.70;97.10
20526;DHT22;10421;49.142;9.232;2022-09-24T15:57:40;20.70;97.00
20526;DHT22;10421;49.142;9.232;2022-09-24T16:00:12;20.70;96.90
20526;DHT22;10421;49.142;9.232;2022-09-24T16:02:42;20.70;97.20